Time;durP1;ratioP1;P1;durP2;ratioP2;P2;SDS_P1;SDS_P2;PMS_P1;PMS_P2;Temp;Humidity;BMP_temperature;BMP_pressure;BME280_temperature;BME280_humidity;BME280_pressure;Samples;Min_cycle;Max_cycle;Signal;HPM_P1;HPM_P2
2021/10/20 00:00:51;;;;;;;15.77;14.07;;;16.00;99.90;;;;;;5041247;28;20060;-71
2021/10/20 00:03:17;;;;;;;16.23;14.57;;;16.00;99.90;;;;;;5044177;28;20045;-71
2021/10/20 00:05:43;;;;;;;16.45;14.13;;;16.00;99.90;;;;;;5043868;28;20048;-71
2021/10/20 00:08:09;;;;;;;16.40;13.60;;;16.00;99.90;;;;;;5045010;28;20376;-71
2021/10/20 00:10:36;;;;;;;15.43;13.02;;;16.00;99.90;;;;;;5042099;28;20037;-71
2021/10/20 00:13:05;;;;;;;16.95;13.70;;;16.00;99.90;;;;;;5028375;28;20060;-70
2021/10/20 00:15:34;;;;;;;15.23;13.65;;;16.00;99.90;;;;;;5028594;28;20033;-71
2021/10/20 00:18:01;;;;;;;16.65;13.85;;;16.00;99.90;;;;;;5045297;28;20045;-71
2021/10/20 00:20:27;;;;;;;17.88;13.50;;;16.00;99.90;;;;;;5044608;28;20479;-70
2021/10/20 00:22:54;;;;;;;15.35;13.25;;;16.10;99.90;;;;;;5030492;28;20103;-71
2021/10/20 00:25:20;;;;;;;16.20;13.13;;;16.10;99.90;;;;;;5048489;28;20037;-71
2021/10/20 00:27:47;;;;;;;13.98;12.52;;;16.10;99.90;;;;;;5031915;28;20041;-71
2021/10/20 00:30:15;;;;;;;15.27;12.77;;;16.10;99.90;;;;;;5049284;28;20167;-71
2021/10/20 00:32:42;;;;;;;17.08;12.68;;;16.10;99.90;;;;;;5048014;28;20385;-71
2021/10/20 00:35:09;;;;;;;14.05;12.30;;;16.10;99.90;;;;;;5047348;28;20469;-71
2021/10/20 00:37:38;;;;;;;13.25;11.80;;;16.10;99.90;;;;;;5048585;28;20056;-71
2021/10/20 00:40:06;;;;;;;13.80;11.70;;;16.10;99.90;;;;;;5032079;28;20049;-71
2021/10/20 00:42:33;;;;;;;14.63;12.00;;;16.00;99.90;;;;;;5048727;28;20407;-72
2021/10/20 00:45:00;;;;;;;13.05;11.65;;;16.00;99.90;;;;;;5032765;28;20059;-71
2021/10/20 00:47:27;;;;;;;15.35;11.68;;;16.00;99.90;;;;;;5047706;28;20482;-71
2021/10/20 00:49:53;;;;;;;14.10;12.20;;;16.00;99.90;;;;;;5031677;28;20059;-71
2021/10/20 00:52:21;;;;;;;14.45;11.35;;;15.90;99.90;;;;;;5047908;28;20084;-71
2021/10/20 00:54:49;;;;;;;13.15;11.75;;;15.90;99.90;;;;;;5046316;28;20053;-71
2021/10/20 00:57:15;;;;;;;15.70;11.50;;;15.90;99.90;;;;;;5031654;28;20675;-71
2021/10/20 00:59:42;;;;;;;13.07;11.57;;;15.90;99.90;;;;;;5031494;28;20037;-71
2021/10/20 01:02:08;;;;;;;15.52;11.80;;;15.80;99.90;;;;;;5030606;28;20106;-70
2021/10/20 01:04:36;;;;;;;12.35;11.07;;;15.80;99.90;;;;;;5013108;28;20570;-71
2021/10/20 01:07:05;;;;;;;14.55;11.48;;;15.80;99.90;;;;;;5048345;28;20047;-71
2021/10/20 01:09:35;;;;;;;12.93;11.07;;;15.80;99.90;;;;;;5064635;28;20052;-71
2021/10/20 01:12:04;;;;;;;15.93;11.50;;;15.80;99.90;;;;;;5029707;28;20295;-71
2021/10/20 01:14:30;;;;;;;14.20;11.40;;;15.80;99.90;;;;;;5046365;28;20057;-70
2021/10/20 01:16:57;;;;;;;14.88;11.57;;;15.70;99.90;;;;;;5047737;28;20403;-71
2021/10/20 01:19:23;;;;;;;11.70;10.45;;;15.70;99.90;;;;;;5047724;28;20128;-71
2021/10/20 01:21:51;;;;;;;12.20;10.45;;;15.70;99.90;;;;;;5047361;28;20037;-71
2021/10/20 01:24:22;;;;;;;12.07;10.65;;;15.70;99.90;;;;;;5030875;28;20098;-71
2021/10/20 01:26:53;;;;;;;13.70;10.77;;;15.70;99.90;;;;;;5027736;28;20034;-71
2021/10/20 01:29:22;;;;;;;11.52;10.30;;;15.70;99.90;;;;;;5046067;28;20048;-71
2021/10/20 01:31:57;;;;;;;13.13;10.32;;;15.60;99.90;;;;;;5030664;28;20033;-71
2021/10/20 01:34:23;;;;;;;11.52;10.32;;;15.60;99.90;;;;;;5043948;28;20079;-71
2021/10/20 01:36:50;;;;;;;13.27;10.55;;;15.60;99.90;;;;;;5030179;28;20041;-71
2021/10/20 01:39:17;;;;;;;11.55;10.32;;;15.50;99.90;;;;;;5031319;28;20457;-71
2021/10/20 01:41:43;;;;;;;15.38;10.25;;;15.50;99.90;;;;;;5046538;28;20094;-71
2021/10/20 01:44:09;;;;;;;14.48;10.68;;;15.40;99.90;;;;;;5030105;28;20499;-70
2021/10/20 01:46:35;;;;;;;11.32;10.05;;;15.40;99.90;;;;;;5029335;28;20048;-71
2021/10/20 01:49:04;;;;;;;12.23;9.55;;;15.40;99.90;;;;;;5047457;28;20044;-71
2021/10/20 01:51:30;;;;;;;12.38;11.07;;;15.40;99.90;;;;;;5030638;28;20144;-71
2021/10/20 01:53:56;;;;;;;13.05;10.95;;;15.40;99.90;;;;;;5030452;28;20444;-71
2021/10/20 01:56:30;;;;;;;15.73;10.73;;;15.40;99.90;;;;;;5029166;28;20860;-71
2021/10/20 01:58:57;;;;;;;15.38;10.15;;;15.40;99.90;;;;;;5027956;28;20507;-71
2021/10/20 02:01:28;;;;;;;12.00;10.43;;;15.40;99.90;;;;;;5044645;28;20041;-71
2021/10/20 02:03:54;;;;;;;12.57;11.27;;;15.40;99.90;;;;;;5028793;28;20106;-71
2021/10/20 02:06:20;;;;;;;13.35;10.52;;;15.40;99.90;;;;;;5030869;28;20082;-71
2021/10/20 02:08:47;;;;;;;12.05;10.85;;;15.30;99.90;;;;;;5028427;28;20040;-71
2021/10/20 02:11:14;;;;;;;13.60;10.43;;;15.30;99.90;;;;;;5028356;28;20582;-71
2021/10/20 02:13:41;;;;;;;14.18;10.50;;;15.20;99.90;;;;;;5013681;28;20044;-71
2021/10/20 02:16:07;;;;;;;12.20;10.27;;;15.20;99.90;;;;;;5044899;28;20045;-70
2021/10/20 02:18:33;;;;;;;12.70;9.75;;;15.20;99.90;;;;;;5046167;28;20098;-71
2021/10/20 02:21:00;;;;;;;12.90;10.15;;;15.10;99.90;;;;;;5047365;28;20582;-71
2021/10/20 02:23:26;;;;;;;11.85;10.48;;;15.10;99.90;;;;;;5046471;28;20045;-71
2021/10/20 02:25:54;;;;;;;11.35;10.10;;;15.00;99.90;;;;;;5030852;28;20139;-71
2021/10/20 02:28:20;;;;;;;13.13;10.43;;;15.10;99.90;;;;;;5044763;28;20572;-71
2021/10/20 02:30:46;;;;;;;13.48;10.40;;;15.00;99.90;;;;;;5028666;28;20193;-71
2021/10/20 02:33:12;;;;;;;12.50;11.20;;;15.00;99.90;;;;;;5045282;28;20095;-70
2021/10/20 02:35:37;;;;;;;13.63;10.73;;;14.90;99.90;;;;;;5045875;28;20048;-70
2021/10/20 02:38:03;;;;;;;13.43;11.10;;;14.90;99.90;;;;;;5045880;28;20060;-70
2021/10/20 02:40:37;;;;;;;12.32;10.75;;;14.90;99.90;;;;;;5045914;28;20033;-71
2021/10/20 02:43:02;;;;;;;13.65;10.90;;;14.90;99.90;;;;;;5046261;28;20059;-71
2021/10/20 02:45:28;;;;;;;11.85;10.18;;;14.90;99.90;;;;;;5010982;28;20033;-71
2021/10/20 02:47:54;;;;;;;13.05;10.52;;;14.90;99.90;;;;;;5045586;28;20045;-71
2021/10/20 02:50:21;;;;;;;12.70;10.45;;;14.90;99.90;;;;;;5027966;28;20048;-71
2021/10/20 02:52:46;;;;;;;14.40;10.75;;;14.90;99.90;;;;;;5029136;28;20045;-71
2021/10/20 02:55:12;;;;;;;15.20;10.95;;;14.90;99.90;;;;;;5013678;28;20071;-71
2021/10/20 02:57:38;;;;;;;13.23;11.00;;;14.90;99.90;;;;;;5040990;28;20400;-71
2021/10/20 03:00:05;;;;;;;12.25;10.57;;;14.90;99.90;;;;;;5025733;28;20396;-71
2021/10/20 03:02:30;;;;;;;13.77;10.93;;;14.90;99.90;;;;;;5042409;28;20061;-71
2021/10/20 03:04:59;;;;;;;14.30;11.43;;;14.90;99.90;;;;;;5043429;28;20205;-71
2021/10/20 03:07:25;;;;;;;12.95;11.18;;;14.90;99.90;;;;;;5027625;28;20598;-71
2021/10/20 03:09:51;;;;;;;13.13;11.25;;;14.90;99.90;;;;;;5043027;28;20458;-70
2021/10/20 03:12:16;;;;;;;13.52;10.52;;;14.90;99.90;;;;;;5044252;28;20395;-70
2021/10/20 03:14:42;;;;;;;14.77;11.98;;;15.00;99.90;;;;;;5042920;28;20712;-71
2021/10/20 03:17:08;;;;;;;13.88;11.05;;;15.00;99.90;;;;;;5044245;28;20040;-71
2021/10/20 03:19:34;;;;;;;13.27;11.88;;;14.90;99.90;;;;;;5043643;28;20064;-71
2021/10/20 03:21:59;;;;;;;15.65;11.27;;;14.90;99.90;;;;;;5042592;28;20044;-71
2021/10/20 03:24:25;;;;;;;16.02;11.75;;;14.90;99.90;;;;;;5027281;28;20041;-71
2021/10/20 03:26:51;;;;;;;13.80;11.85;;;15.00;99.90;;;;;;5027045;28;20037;-71
2021/10/20 03:29:16;;;;;;;13.95;11.15;;;14.90;99.90;;;;;;5043853;28;20408;-71
2021/10/20 03:31:42;;;;;;;14.27;10.93;;;14.90;99.90;;;;;;5043312;28;20041;-70
2021/10/20 03:34:08;;;;;;;16.40;12.35;;;14.90;99.90;;;;;;5042615;28;20079;-71
2021/10/20 03:36:34;;;;;;;13.75;11.73;;;14.90;99.90;;;;;;5043467;28;20049;-71
2021/10/20 03:38:59;;;;;;;15.07;12.20;;;14.90;99.90;;;;;;5041267;28;20124;-71
2021/10/20 03:41:28;;;;;;;14.30;12.13;;;14.90;99.90;;;;;;5044108;28;20126;-70
2021/10/20 03:43:54;;;;;;;16.02;12.07;;;14.90;99.90;;;;;;5045225;28;20048;-71
2021/10/20 03:46:19;;;;;;;14.90;11.43;;;14.90;99.90;;;;;;5028605;28;20074;-70
2021/10/20 03:48:45;;;;;;;15.02;12.43;;;14.90;99.90;;;;;;5042360;28;20141;-71
2021/10/20 03:51:11;;;;;;;17.05;12.48;;;14.90;99.90;;;;;;5028740;28;20491;-70
2021/10/20 03:53:37;;;;;;;16.15;12.73;;;14.90;99.90;;;;;;5044925;28;20123;-70
2021/10/20 03:56:03;;;;;;;19.83;13.00;;;14.90;99.90;;;;;;5029017;28;20088;-71
2021/10/20 03:58:28;;;;;;;17.30;13.45;;;14.90;99.90;;;;;;5049849;28;20079;-71
2021/10/20 04:00:57;;;;;;;15.27;13.43;;;14.90;99.90;;;;;;5030369;28;20045;-71
2021/10/20 04:03:22;;;;;;;17.35;12.98;;;14.90;99.90;;;;;;5050910;28;20045;-69
2021/10/20 04:05:48;;;;;;;16.27;13.18;;;14.90;99.90;;;;;;5066482;28;20055;-71
2021/10/20 04:08:14;;;;;;;14.63;12.30;;;14.90;99.90;;;;;;5034633;28;20522;-71
2021/10/20 04:10:40;;;;;;;17.15;13.75;;;14.90;99.90;;;;;;5050211;28;20040;-71
2021/10/20 04:13:05;;;;;;;16.77;14.15;;;14.90;99.90;;;;;;5034499;28;20088;-71
2021/10/20 04:15:34;;;;;;;16.88;14.15;;;14.90;99.90;;;;;;5017661;28;20138;-71
2021/10/20 04:18:00;;;;;;;18.08;13.63;;;14.90;99.90;;;;;;5034168;28;20049;-71
2021/10/20 04:20:29;;;;;;;21.38;13.82;;;14.90;99.90;;;;;;5050388;28;20543;-70
2021/10/20 04:22:55;;;;;;;21.55;14.05;;;15.00;99.90;;;;;;5050272;28;20051;-70
2021/10/20 04:25:22;;;;;;;17.15;13.85;;;15.00;99.90;;;;;;5033386;28;20045;-70
2021/10/20 04:27:50;;;;;;;18.00;13.52;;;15.00;99.90;;;;;;5033605;28;20519;-71
2021/10/20 04:30:16;;;;;;;16.88;13.85;;;15.10;99.90;;;;;;5034053;28;20041;-71
2021/10/20 04:32:43;;;;;;;18.00;14.23;;;15.20;99.90;;;;;;5065407;28;20200;-71
2021/10/20 04:35:10;;;;;;;15.70;13.73;;;15.20;99.90;;;;;;5049184;28;20411;-71
2021/10/20 04:37:37;;;;;;;17.65;13.77;;;15.20;99.90;;;;;;5049852;28;20043;-71
2021/10/20 04:40:05;;;;;;;16.65;13.75;;;15.30;99.90;;;;;;5016674;28;20041;-70
2021/10/20 04:42:34;;;;;;;16.85;13.63;;;15.30;99.90;;;;;;5013771;28;20578;-71
2021/10/20 04:45:00;;;;;;;17.13;13.10;;;15.30;99.90;;;;;;5030144;28;20507;-71
2021/10/20 04:47:25;;;;;;;15.93;13.90;;;15.40;99.90;;;;;;5046851;28;20049;-71
2021/10/20 04:49:51;;;;;;;17.15;13.57;;;15.40;99.90;;;;;;5029419;28;20041;-71
2021/10/20 04:52:22;;;;;;;16.98;13.68;;;15.40;99.90;;;;;;5030299;28;20571;-71
2021/10/20 04:54:51;;;;;;;17.92;13.32;;;15.40;99.90;;;;;;5045809;28;20061;-71
2021/10/20 04:57:18;;;;;;;16.40;14.18;;;15.40;99.90;;;;;;5032720;28;20049;-70
2021/10/20 04:59:43;;;;;;;17.38;14.30;;;15.40;99.90;;;;;;5024808;28;20071;-71
2021/10/20 05:02:09;;;;;;;16.77;14.70;;;15.40;99.90;;;;;;5016119;28;20063;-71
2021/10/20 05:04:35;;;;;;;21.48;14.70;;;15.40;99.90;;;;;;5032057;28;20041;-71
2021/10/20 05:07:04;;;;;;;18.17;13.80;;;15.50;99.90;;;;;;5049291;28;20071;-71
2021/10/20 05:09:30;;;;;;;16.02;14.13;;;15.50;99.90;;;;;;5048882;28;20048;-71
2021/10/20 05:11:55;;;;;;;17.98;14.02;;;15.50;99.90;;;;;;5033016;28;20045;-70
2021/10/20 05:14:22;;;;;;;18.70;14.50;;;15.50;99.90;;;;;;5031992;28;20761;-71
2021/10/20 05:16:48;;;;;;;18.17;15.07;;;15.60;99.90;;;;;;5031147;28;20037;-71
2021/10/20 05:19:14;;;;;;;18.60;15.02;;;15.50;99.90;;;;;;5047601;28;20547;-70
2021/10/20 05:21:40;;;;;;;18.98;14.27;;;15.60;99.90;;;;;;5030766;28;20037;-71
2021/10/20 05:24:06;;;;;;;17.52;14.85;;;15.60;99.90;;;;;;5047529;28;20067;-71
2021/10/20 05:26:32;;;;;;;18.38;15.88;;;15.60;99.90;;;;;;5046879;28;20036;-71
2021/10/20 05:28:58;;;;;;;18.60;14.68;;;15.60;99.90;;;;;;5031204;28;20052;-71
2021/10/20 05:31:24;;;;;;;18.17;15.23;;;15.60;99.90;;;;;;5046657;28;20052;-71
2021/10/20 05:33:49;;;;;;;20.25;15.27;;;15.70;99.90;;;;;;5013784;28;20055;-71
2021/10/20 05:36:15;;;;;;;19.70;16.48;;;15.70;99.90;;;;;;5048002;28;20063;-71
2021/10/20 05:38:41;;;;;;;18.73;15.45;;;15.70;99.90;;;;;;5031261;28;20492;-70
2021/10/20 05:41:07;;;;;;;18.77;15.30;;;15.70;99.90;;;;;;5044153;28;20037;-70
2021/10/20 05:43:33;;;;;;;20.40;16.95;;;15.70;99.90;;;;;;5028519;28;20048;-71
2021/10/20 05:45:59;;;;;;;19.45;15.63;;;15.70;99.90;;;;;;5028090;28;20041;-71
2021/10/20 05:48:28;;;;;;;22.90;15.88;;;15.70;99.90;;;;;;5027805;28;20052;-71
2021/10/20 05:50:54;;;;;;;17.48;15.43;;;15.70;99.90;;;;;;5046012;28;20044;-71
2021/10/20 05:53:20;;;;;;;19.50;14.98;;;15.70;99.90;;;;;;5039048;28;20099;-71
2021/10/20 05:55:46;;;;;;;20.10;15.93;;;15.70;99.90;;;;;;5039496;28;20103;-71
2021/10/20 05:58:12;;;;;;;21.10;15.88;;;15.80;99.90;;;;;;5030990;28;20084;-70
2021/10/20 06:00:39;;;;;;;18.77;14.35;;;15.80;99.90;;;;;;5045673;28;20036;-71
2021/10/20 06:03:05;;;;;;;20.88;14.95;;;15.90;99.90;;;;;;5028771;28;20127;-71
2021/10/20 06:05:35;;;;;;;19.42;14.85;;;15.90;99.90;;;;;;5043314;28;20483;-70
2021/10/20 06:08:04;;;;;;;19.35;14.95;;;16.00;99.90;;;;;;5014092;28;20040;-72
2021/10/20 06:10:30;;;;;;;18.35;14.73;;;16.10;99.90;;;;;;5046407;28;20047;-71
2021/10/20 06:12:55;;;;;;;20.25;14.73;;;16.10;99.90;;;;;;5043862;28;20044;-71
2021/10/20 06:15:24;;;;;;;16.95;13.93;;;16.20;99.90;;;;;;5050514;28;20069;-71
2021/10/20 06:17:50;;;;;;;19.75;14.50;;;16.20;99.90;;;;;;5047091;28;20110;-71
2021/10/20 06:20:17;;;;;;;19.17;15.07;;;16.20;99.90;;;;;;5044194;28;20056;-71
2021/10/20 06:22:43;;;;;;;18.13;15.20;;;16.30;99.90;;;;;;5043800;28;20055;-71
2021/10/20 06:25:13;;;;;;;18.80;14.73;;;16.30;99.90;;;;;;5042592;28;20045;-72
2021/10/20 06:27:40;;;;;;;16.73;15.00;;;16.30;99.90;;;;;;5049539;28;20051;-72
2021/10/20 06:30:07;;;;;;;21.10;15.52;;;16.30;99.90;;;;;;5027249;28;20049;-71
2021/10/20 06:32:36;;;;;;;19.52;15.80;;;16.30;99.90;;;;;;5046235;28;20430;-71
2021/10/20 06:35:06;;;;;;;20.95;15.98;;;16.30;99.90;;;;;;5012749;28;20071;-71
2021/10/20 06:37:32;;;;;;;22.48;17.67;;;16.30;99.90;;;;;;5027226;28;20049;-71
2021/10/20 06:40:00;;;;;;;20.08;16.02;;;16.30;99.90;;;;;;5019138;28;20506;-71
2021/10/20 06:42:28;;;;;;;19.77;15.18;;;16.30;99.90;;;;;;5025283;28;20051;-71
2021/10/20 06:44:56;;;;;;;17.55;15.65;;;16.20;99.90;;;;;;5046063;28;20037;-72
2021/10/20 06:47:23;;;;;;;19.80;15.13;;;16.20;99.90;;;;;;5029609;28;20037;-71
2021/10/20 06:49:48;;;;;;;18.55;15.93;;;16.20;99.90;;;;;;5044392;28;20507;-72
2021/10/20 06:52:14;;;;;;;20.98;16.60;;;16.10;99.90;;;;;;5029001;28;20064;-72
2021/10/20 06:54:40;;;;;;;19.85;15.68;;;16.10;99.90;;;;;;5045599;28;20037;-71
2021/10/20 06:57:06;;;;;;;16.85;15.05;;;16.10;99.90;;;;;;5042840;28;20054;-71
2021/10/20 06:59:32;;;;;;;17.08;13.73;;;16.10;99.90;;;;;;5041407;28;20043;-71
2021/10/20 07:01:57;;;;;;;18.98;15.35;;;16.10;99.90;;;;;;5044033;28;20118;-71
2021/10/20 07:04:23;;;;;;;17.90;14.02;;;16.10;99.90;;;;;;5017978;28;20697;-72
2021/10/20 07:06:51;;;;;;;17.13;14.85;;;16.10;99.90;;;;;;5030760;28;20123;-72
2021/10/20 07:09:17;;;;;;;18.00;14.27;;;16.10;99.90;;;;;;5030249;28;20115;-72
2021/10/20 07:11:42;;;;;;;20.38;15.55;;;16.10;99.90;;;;;;5037951;28;20075;-71
2021/10/20 07:14:08;;;;;;;16.60;14.30;;;16.10;99.90;;;;;;5029586;28;20492;-70
2021/10/20 07:16:35;;;;;;;16.15;13.05;;;16.10;99.90;;;;;;5052277;28;20406;-72
2021/10/20 07:19:06;;;;;;;22.75;14.05;;;16.10;99.90;;;;;;5030596;28;20414;-72
2021/10/20 07:21:33;;;;;;;18.08;13.60;;;16.10;99.90;;;;;;5012542;28;20041;-71
2021/10/20 07:23:59;;;;;;;15.13;13.30;;;16.10;99.90;;;;;;5028705;28;20037;-71
2021/10/20 07:26:25;;;;;;;15.60;13.27;;;16.10;99.90;;;;;;5009417;28;20189;-72
2021/10/20 07:28:50;;;;;;;15.52;13.55;;;16.10;99.90;;;;;;5045239;28;20037;-72
2021/10/20 07:31:16;;;;;;;15.60;13.13;;;16.10;99.90;;;;;;5030008;28;20055;-72
2021/10/20 07:33:42;;;;;;;14.00;11.63;;;16.20;99.90;;;;;;5051745;28;20049;-71
2021/10/20 07:36:08;;;;;;;14.07;12.55;;;16.20;99.90;;;;;;5047578;28;20049;-71
2021/10/20 07:38:34;;;;;;;17.67;12.68;;;16.20;99.90;;;;;;5032356;28;20463;-72
2021/10/20 07:41:00;;;;;;;16.58;12.48;;;16.20;99.90;;;;;;5045783;28;20055;-70
2021/10/20 07:43:25;;;;;;;16.65;12.00;;;16.20;99.90;;;;;;5045665;28;20490;-72
2021/10/20 07:45:51;;;;;;;15.50;12.82;;;16.30;99.90;;;;;;5029414;28;20045;-71
2021/10/20 07:48:17;;;;;;;15.75;13.07;;;16.30;99.90;;;;;;5030666;28;20079;-72
2021/10/20 07:50:43;;;;;;;15.30;12.57;;;16.30;99.90;;;;;;5034857;28;20068;-72
2021/10/20 07:53:11;;;;;;;19.15;13.52;;;16.30;99.90;;;;;;5044753;28;20105;-71
2021/10/20 07:55:37;;;;;;;15.30;13.00;;;16.20;99.90;;;;;;5041581;28;20130;-72
2021/10/20 07:58:03;;;;;;;16.02;13.35;;;16.20;99.90;;;;;;5044795;28;20527;-71
2021/10/20 08:00:29;;;;;;;14.82;12.13;;;16.10;99.90;;;;;;5044453;28;20120;-71
2021/10/20 08:02:56;;;;;;;18.15;12.23;;;16.10;99.90;;;;;;5028518;28;20135;-71
2021/10/20 08:05:22;;;;;;;16.33;12.05;;;16.10;99.90;;;;;;5027090;28;20048;-71
2021/10/20 08:07:48;;;;;;;12.98;11.23;;;16.10;99.90;;;;;;5027633;28;20581;-72
2021/10/20 08:10:16;;;;;;;14.60;11.85;;;16.10;99.90;;;;;;5007087;28;20492;-72
2021/10/20 08:12:44;;;;;;;14.45;11.57;;;16.10;99.90;;;;;;5027647;28;20145;-72
2021/10/20 08:15:11;;;;;;;13.50;11.70;;;16.10;99.90;;;;;;5044073;28;20040;-71
2021/10/20 08:17:37;;;;;;;14.07;11.65;;;16.10;99.90;;;;;;5026582;28;20080;-72
2021/10/20 08:20:07;;;;;;;13.60;11.43;;;16.10;99.90;;;;;;5042362;28;20591;-71
2021/10/20 08:22:32;;;;;;;13.00;11.43;;;16.20;99.90;;;;;;5048689;28;20546;-72
2021/10/20 08:24:58;;;;;;;13.75;12.32;;;16.20;99.90;;;;;;4994914;28;20084;-71
2021/10/20 08:27:24;;;;;;;13.70;10.18;;;16.30;99.90;;;;;;5043378;28;20045;-72
2021/10/20 08:29:50;;;;;;;15.23;10.57;;;16.30;99.90;;;;;;4995253;28;20237;-72
2021/10/20 08:32:15;;;;;;;13.98;10.82;;;16.30;99.90;;;;;;5042338;28;20045;-72
2021/10/20 08:34:41;;;;;;;13.27;10.25;;;16.30;99.90;;;;;;5010961;28;20221;-72
2021/10/20 08:37:07;;;;;;;11.88;10.35;;;16.30;99.90;;;;;;5028203;28;20095;-72
2021/10/20 08:39:33;;;;;;;12.18;10.07;;;16.30;99.90;;;;;;5011301;28;20128;-72
2021/10/20 08:41:59;;;;;;;13.25;10.75;;;16.30;99.90;;;;;;5028554;28;20037;-72
2021/10/20 08:44:26;;;;;;;12.95;10.32;;;16.30;99.90;;;;;;5031512;28;20124;-71
2021/10/20 08:46:52;;;;;;;12.70;9.35;;;16.30;99.90;;;;;;5031680;28;20511;-72
2021/10/20 08:49:19;;;;;;;12.18;10.20;;;16.30;99.90;;;;;;5031451;28;20483;-73
2021/10/20 08:51:45;;;;;;;13.88;9.65;;;16.20;99.90;;;;;;5029321;28;20576;-72
2021/10/20 08:54:12;;;;;;;11.75;9.18;;;16.30;99.90;;;;;;5049125;28;20076;-71
2021/10/20 08:56:38;;;;;;;11.88;9.27;;;16.30;99.90;;;;;;5046573;28;20057;-71
2021/10/20 08:59:04;;;;;;;11.68;9.73;;;16.30;99.90;;;;;;5029888;28;20123;-70
2021/10/20 09:01:30;;;;;;;12.27;9.35;;;16.30;99.90;;;;;;5046626;28;20080;-71
2021/10/20 09:03:56;;;;;;;10.73;9.15;;;16.40;99.90;;;;;;5015708;28;20062;-72
2021/10/20 09:06:25;;;;;;;11.50;9.00;;;16.30;99.90;;;;;;5050663;28;20745;-72
2021/10/20 09:08:51;;;;;;;10.93;9.18;;;16.40;99.90;;;;;;5050145;28;20677;-73
2021/10/20 09:14:10;;;;;;;11.52;9.80;;;16.40;99.90;;;;;;5047308;28;20057;-72
2021/10/20 09:16:39;;;;;;;11.57;9.75;;;16.40;99.90;;;;;;5046220;28;20187;-72
2021/10/20 09:19:15;;;;;;;11.45;9.20;;;16.30;99.90;;;;;;5060087;28;20128;-73
2021/10/20 09:21:54;;;;;;;11.93;9.27;;;16.30;99.90;;;;;;5046666;28;20041;-72
2021/10/20 09:24:21;;;;;;;14.88;10.23;;;16.30;99.90;;;;;;5029580;28;20040;-72
2021/10/20 09:26:55;;;;;;;12.48;10.07;;;16.30;99.90;;;;;;5014029;28;20065;-72
2021/10/20 09:29:32;;;;;;;12.18;10.43;;;16.30;99.90;;;;;;5047409;28;20056;-72
2021/10/20 09:32:00;;;;;;;11.93;10.38;;;16.30;99.90;;;;;;5045431;28;20136;-72
2021/10/20 09:34:37;;;;;;;11.80;10.60;;;16.30;99.90;;;;;;5047425;28;20039;-72
2021/10/20 09:37:04;;;;;;;12.95;11.55;;;16.40;99.90;;;;;;5047810;28;20045;-72
2021/10/20 09:39:30;;;;;;;13.10;10.95;;;16.40;99.90;;;;;;5047564;28;20037;-72
2021/10/20 09:42:07;;;;;;;12.40;11.10;;;16.40;99.90;;;;;;5045973;28;20099;-73
2021/10/20 09:44:48;;;;;;;14.00;11.57;;;16.40;99.90;;;;;;5046699;28;20080;-73
2021/10/20 09:47:15;;;;;;;13.00;11.57;;;16.40;99.90;;;;;;5046999;28;20051;-72
2021/10/20 09:49:56;;;;;;;12.15;10.73;;;16.40;99.90;;;;;;5029589;28;20060;-72
2021/10/20 09:52:23;;;;;;;13.30;10.30;;;16.40;99.90;;;;;;5014170;28;20112;-72
2021/10/20 09:54:50;;;;;;;12.68;10.57;;;16.40;99.90;;;;;;5043878;28;20581;-73
2021/10/20 09:57:16;;;;;;;13.98;11.45;;;16.40;99.90;;;;;;5029938;28;20491;-72
2021/10/20 09:59:44;;;;;;;14.63;11.25;;;16.40;99.90;;;;;;5028846;28;20243;-73
2021/10/20 10:02:12;;;;;;;13.93;10.90;;;16.40;99.90;;;;;;5029271;28;20125;-73
2021/10/20 10:04:39;;;;;;;14.05;11.02;;;16.50;99.90;;;;;;5045435;28;20036;-74
2021/10/20 10:07:05;;;;;;;12.35;11.02;;;16.40;99.90;;;;;;5011230;28;20080;-74
2021/10/20 10:09:34;;;;;;;12.50;11.20;;;16.50;99.90;;;;;;5046526;28;20395;-75
2021/10/20 10:12:23;;;;;;;12.73;11.35;;;16.60;99.90;;;;;;5033558;28;20403;-73
2021/10/20 10:15:02;;;;;;;12.75;11.48;;;16.60;99.90;;;;;;5048615;28;20041;-72
2021/10/20 10:17:30;;;;;;;12.77;11.48;;;16.70;99.90;;;;;;5044533;28;20037;-72
2021/10/20 10:20:15;;;;;;;12.38;11.10;;;16.80;99.90;;;;;;5043649;28;20042;-73
2021/10/20 10:22:48;;;;;;;11.77;10.57;;;16.90;99.90;;;;;;5045044;28;20651;-73
2021/10/20 10:25:15;;;;;;;14.05;11.00;;;17.00;99.90;;;;;;5028912;28;20045;-72
2021/10/20 10:28:23;;;;;;;14.15;11.02;;;17.00;99.90;;;;;;5029368;28;20083;-73
2021/10/20 10:31:02;;;;;;;13.05;11.60;;;17.10;99.90;;;;;;5040360;28;20049;-73
2021/10/20 10:33:31;;;;;;;11.80;10.20;;;17.10;99.90;;;;;;5028749;28;20098;-73
2021/10/20 10:36:12;;;;;;;12.02;10.80;;;17.00;99.90;;;;;;5033527;28;20237;-73
2021/10/20 10:38:44;;;;;;;12.60;11.23;;;17.00;99.90;;;;;;5075472;28;20041;-73
2021/10/20 10:41:40;;;;;;;12.10;10.80;;;17.00;99.90;;;;;;5028288;28;20037;-73
2021/10/20 10:44:08;;;;;;;12.07;10.63;;;17.00;99.90;;;;;;5043496;28;20558;-73
2021/10/20 10:46:39;;;;;;;15.20;10.85;;;17.10;99.90;;;;;;5051089;28;20500;-73
2021/10/20 10:49:21;;;;;;;11.63;10.07;;;17.10;99.90;;;;;;5043990;28;20044;-73
2021/10/20 10:52:19;;;;;;;12.45;10.43;;;17.10;99.90;;;;;;5045055;28;20415;-72
2021/10/20 10:54:56;;;;;;;11.20;10.10;;;17.10;99.90;;;;;;5046443;28;20059;-72
2021/10/20 10:57:22;;;;;;;10.63;9.55;;;17.10;99.90;;;;;;5023212;28;20060;-73
2021/10/20 11:00:06;;;;;;;11.95;10.75;;;17.10;99.90;;;;;;5057276;28;20048;-72
2021/10/20 11:02:46;;;;;;;12.75;11.55;;;17.00;99.90;;;;;;5062687;28;20535;-73
2021/10/20 11:05:13;;;;;;;16.40;12.98;;;17.00;99.90;;;;;;5015137;28;20045;-72
2021/10/20 11:07:43;;;;;;;14.23;12.93;;;16.80;99.90;;;;;;5029973;28;20084;-73
2021/10/20 11:10:10;;;;;;;14.63;13.13;;;16.70;99.90;;;;;;5049014;28;20507;-73
2021/10/20 11:12:36;;;;;;;14.95;13.48;;;16.50;99.90;;;;;;5054435;28;20115;-72
2021/10/20 11:15:11;;;;;;;14.38;12.88;;;16.50;99.90;;;;;;5046105;28;20496;-72
2021/10/20 11:17:36;;;;;;;14.75;13.05;;;16.50;99.90;;;;;;5045369;28;20051;-74
2021/10/20 11:20:11;;;;;;;15.60;13.85;;;16.40;99.90;;;;;;5028566;28;20140;-74
2021/10/20 11:22:37;;;;;;;15.95;14.35;;;16.40;99.90;;;;;;5044683;28;20037;-74
2021/10/20 11:25:07;;;;;;;14.70;13.27;;;16.30;99.90;;;;;;5062855;28;20041;-74
2021/10/20 11:27:34;;;;;;;15.77;13.10;;;16.30;99.90;;;;;;5046041;28;20241;-75
2021/10/20 11:30:01;;;;;;;14.48;13.07;;;16.30;99.90;;;;;;5046212;28;20051;-74
2021/10/20 11:32:29;;;;;;;14.70;13.30;;;16.40;99.90;;;;;;5029711;28;20044;-76
2021/10/20 11:34:55;;;;;;;14.85;13.18;;;16.40;99.90;;;;;;5045822;28;20051;-75
2021/10/20 11:37:23;;;;;;;13.25;11.85;;;16.40;99.90;;;;;;5045628;28;20087;-73
2021/10/20 11:40:03;;;;;;;13.63;12.32;;;16.50;99.90;;;;;;5062824;28;20044;-73
2021/10/20 11:42:31;;;;;;;;;;;16.60;99.90;;;;;;5063336;28;20056;-75
2021/10/20 11:45:04;;;;;;;17.70;12.27;;;16.60;99.90;;;;;;5062341;28;20038;-74
2021/10/20 11:47:37;;;;;;;14.88;11.25;;;16.70;99.90;;;;;;5013549;28;20492;-75
2021/10/20 11:50:03;;;;;;;12.75;10.82;;;16.70;99.90;;;;;;5063256;28;20131;-74
2021/10/20 11:52:33;;;;;;;11.27;9.82;;;16.70;99.90;;;;;;5063556;28;20139;-73
2021/10/20 11:55:00;;;;;;;14.25;10.40;;;16.70;99.90;;;;;;5014349;28;20041;-74
2021/10/20 11:57:26;;;;;;;12.82;10.10;;;16.80;99.90;;;;;;5049558;28;20546;-73
2021/10/20 11:59:56;;;;;;;12.63;10.48;;;16.80;99.90;;;;;;5049291;28;20059;-74
2021/10/20 12:02:21;;;;;;;13.68;11.05;;;16.80;99.90;;;;;;5033552;28;20084;-73
2021/10/20 12:04:48;;;;;;;12.00;10.32;;;16.80;99.90;;;;;;5022005;28;20072;-74
2021/10/20 12:07:17;;;;;;;10.88;9.38;;;16.80;99.90;;;;;;5030494;28;20110;-73
2021/10/20 12:09:45;;;;;;;11.70;8.93;;;16.80;99.90;;;;;;5049225;28;20457;-74
2021/10/20 12:12:11;;;;;;;11.88;8.93;;;16.90;99.90;;;;;;5066270;28;20044;-74
2021/10/20 12:14:39;;;;;;;10.48;8.35;;;16.90;99.90;;;;;;5066291;28;20578;-74
2021/10/20 12:17:07;;;;;;;10.32;8.73;;;16.90;99.90;;;;;;5033350;28;20041;-74
2021/10/20 12:19:36;;;;;;;10.55;7.90;;;16.90;99.90;;;;;;5033095;28;20061;-73
2021/10/20 12:22:05;;;;;;;13.10;8.15;;;17.00;99.90;;;;;;5016675;28;20041;-73
2021/10/20 12:24:36;;;;;;;10.63;7.97;;;17.00;99.90;;;;;;5045200;28;20666;-72
2021/10/20 12:27:07;;;;;;;9.15;8.02;;;17.00;99.90;;;;;;5053576;28;20079;-73
2021/10/20 12:29:42;;;;;;;10.68;7.72;;;17.00;99.90;;;;;;5036946;28;20474;-72
2021/10/20 12:32:18;;;;;;;12.70;8.02;;;17.10;99.90;;;;;;5036629;28;20055;-72
2021/10/20 12:34:51;;;;;;;14.23;7.82;;;17.10;99.90;;;;;;5036256;28;20052;-72